sensor_id;sensor_type;location;lat;lon;timestamp;pressure;altitude;pressure_sealevel;temperature;humidity
55685;BME280;41883;49.544;8.646;2022-09-01T00:01:47;100752.34;;;17.82;nan
55685;BME280;41883;49.544;8.646;2022-09-01T00:04:16;100757.69;;;17.82;nan
55685;BME280;41883;49.544;8.646;2022-09-01T00:06:42;100749.19;;;17.79;nan
55685;BME280;41883;49.544;8.646;2022-09-01T00:09:11;100753.09;;;17.76;nan
55685;BME280;41883;49.544;8.646;2022-09-01T00:11:38;100745.25;;;17.75;nan
55685;BME280;41883;49.544;8.646;2022-09-01T00:14:06;100739.91;;;17.75;nan
55685;BME280;41883;49.544;8.646;2022-09-01T00:16:32;100731.47;;;17.71;nan
55685;BME280;41883;49.544;8.646;2022-09-01T00:18:58;100742.78;;;17.73;nan
55685;BME280;41883;49.544;8.646;2022-09-01T00:21:27;100739.47;;;17.71;nan
55685;BME280;41883;49.544;8.646;2022-09-01T00:23:53;100746.22;;;17.67;nan
55685;BME280;41883;49.544;8.646;2022-09-01T00:26:18;100742.91;;;17.65;nan
55685;BME280;41883;49.544;8.646;2022-09-01T00:28:43;100728.25;;;17.61;nan
55685;BME280;41883;49.544;8.646;2022-09-01T00:31:09;100736.53;;;17.66;nan
55685;BME280;41883;49.544;8.646;2022-09-01T00:33:40;100736.09;;;17.62;nan
55685;BME280;41883;49.544;8.646;2022-09-01T00:36:06;100731.34;;;17.58;nan
55685;BME280;41883;49.544;8.646;2022-09-01T00:38:32;100731.19;;;17.66;nan
55685;BME280;41883;49.544;8.646;2022-09-01T00:40:57;100728.09;;;17.62;nan
55685;BME280;41883;49.544;8.646;2022-09-01T00:46:21;100727.38;;;17.54;nan
55685;BME280;41883;49.544;8.646;2022-09-01T00:48:51;100725.91;;;17.51;nan
55685;BME280;41883;49.544;8.646;2022-09-01T00:51:17;100726.13;;;17.50;nan
55685;BME280;41883;49.544;8.646;2022-09-01T00:53:43;100721.38;;;17.45;nan
55685;BME280;41883;49.544;8.646;2022-09-01T00:56:10;100723.00;;;17.46;nan
55685;BME280;41883;49.544;8.646;2022-09-01T00:58:37;100722.38;;;17.44;nan
55685;BME280;41883;49.544;8.646;2022-09-01T01:01:05;100723.97;;;17.38;nan
55685;BME280;41883;49.544;8.646;2022-09-01T01:03:30;100727.66;;;17.37;nan
55685;BME280;41883;49.544;8.646;2022-09-01T01:05:57;100732.56;;;17.34;nan
55685;BME280;41883;49.544;8.646;2022-09-01T01:08:31;100732.75;;;17.32;nan
55685;BME280;41883;49.544;8.646;2022-09-01T01:11:06;100738.88;;;17.26;nan
55685;BME280;41883;49.544;8.646;2022-09-01T01:13:46;100736.13;;;17.19;nan
55685;BME280;41883;49.544;8.646;2022-09-01T01:16:12;100733.38;;;17.13;nan
55685;BME280;41883;49.544;8.646;2022-09-01T01:18:40;100741.97;;;17.08;nan
55685;BME280;41883;49.544;8.646;2022-09-01T01:21:09;100742.72;;;17.02;nan
55685;BME280;41883;49.544;8.646;2022-09-01T01:24:15;100749.19;;;16.93;nan
55685;BME280;41883;49.544;8.646;2022-09-01T01:26:42;100739.63;;;16.84;nan
55685;BME280;41883;49.544;8.646;2022-09-01T01:29:07;100736.59;;;16.72;nan
55685;BME280;41883;49.544;8.646;2022-09-01T01:31:33;100735.50;;;16.66;nan
55685;BME280;41883;49.544;8.646;2022-09-01T01:33:59;100736.88;;;16.62;nan
55685;BME280;41883;49.544;8.646;2022-09-01T01:36:28;100738.25;;;16.58;nan
55685;BME280;41883;49.544;8.646;2022-09-01T01:41:29;100739.75;;;16.46;nan
55685;BME280;41883;49.544;8.646;2022-09-01T01:43:57;100740.56;;;16.46;nan
55685;BME280;41883;49.544;8.646;2022-09-01T01:46:22;100739.31;;;16.42;nan
55685;BME280;41883;49.544;8.646;2022-09-01T01:48:50;100741.03;;;16.35;nan
55685;BME280;41883;49.544;8.646;2022-09-01T01:51:17;100733.94;;;16.27;nan
55685;BME280;41883;49.544;8.646;2022-09-01T01:53:45;100737.81;;;16.25;nan
55685;BME280;41883;49.544;8.646;2022-09-01T01:56:12;100735.34;;;16.23;nan
55685;BME280;41883;49.544;8.646;2022-09-01T01:58:37;100737.16;;;16.23;nan
55685;BME280;41883;49.544;8.646;2022-09-01T02:01:03;100744.06;;;16.32;nan
55685;BME280;41883;49.544;8.646;2022-09-01T02:03:32;100748.84;;;16.22;nan
55685;BME280;41883;49.544;8.646;2022-09-01T02:06:06;100753.72;;;16.18;nan
55685;BME280;41883;49.544;8.646;2022-09-01T02:08:36;100750.97;;;16.11;nan
55685;BME280;41883;49.544;8.646;2022-09-01T02:11:03;100750.22;;;16.03;nan
55685;BME280;41883;49.544;8.646;2022-09-01T02:13:30;100753.59;;;15.97;nan
55685;BME280;41883;49.544;8.646;2022-09-01T02:16:04;100751.84;;;15.89;nan
55685;BME280;41883;49.544;8.646;2022-09-01T02:18:39;100745.84;;;15.87;nan
55685;BME280;41883;49.544;8.646;2022-09-01T02:21:07;100744.22;;;15.86;nan
55685;BME280;41883;49.544;8.646;2022-09-01T02:23:35;100739.53;;;15.88;nan
55685;BME280;41883;49.544;8.646;2022-09-01T02:26:00;100745.31;;;15.91;nan
55685;BME280;41883;49.544;8.646;2022-09-01T02:28:27;100739.00;;;15.92;nan
55685;BME280;41883;49.544;8.646;2022-09-01T02:30:54;100745.97;;;15.93;nan
55685;BME280;41883;49.544;8.646;2022-09-01T02:33:22;100741.94;;;15.98;nan
55685;BME280;41883;49.544;8.646;2022-09-01T02:35:54;100744.59;;;15.98;nan
55685;BME280;41883;49.544;8.646;2022-09-01T02:38:21;100743.78;;;15.97;nan
55685;BME280;41883;49.544;8.646;2022-09-01T02:40:50;100746.25;;;15.99;nan
55685;BME280;41883;49.544;8.646;2022-09-01T02:43:18;100746.91;;;16.01;nan
55685;BME280;41883;49.544;8.646;2022-09-01T02:45:49;100741.94;;;15.98;nan
55685;BME280;41883;49.544;8.646;2022-09-01T02:48:20;100741.03;;;16.05;nan
55685;BME280;41883;49.544;8.646;2022-09-01T02:50:49;100738.44;;;15.97;nan
55685;BME280;41883;49.544;8.646;2022-09-01T02:53:14;100740.34;;;15.88;nan
55685;BME280;41883;49.544;8.646;2022-09-01T02:55:41;100736.94;;;15.80;nan
55685;BME280;41883;49.544;8.646;2022-09-01T02:58:07;100746.84;;;15.71;nan
55685;BME280;41883;49.544;8.646;2022-09-01T03:00:42;100743.38;;;15.62;nan
55685;BME280;41883;49.544;8.646;2022-09-01T03:03:08;100741.75;;;15.61;nan
55685;BME280;41883;49.544;8.646;2022-09-01T03:05:37;100746.22;;;15.61;nan
55685;BME280;41883;49.544;8.646;2022-09-01T03:08:06;100748.06;;;15.60;nan
55685;BME280;41883;49.544;8.646;2022-09-01T03:10:35;100752.88;;;15.65;nan
55685;BME280;41883;49.544;8.646;2022-09-01T03:13:15;100748.19;;;15.67;nan
55685;BME280;41883;49.544;8.646;2022-09-01T03:15:42;100749.53;;;15.63;nan
55685;BME280;41883;49.544;8.646;2022-09-01T03:18:10;100748.06;;;15.60;nan
55685;BME280;41883;49.544;8.646;2022-09-01T03:20:37;100747.63;;;15.57;nan
55685;BME280;41883;49.544;8.646;2022-09-01T03:23:05;100740.06;;;15.60;nan
55685;BME280;41883;49.544;8.646;2022-09-01T03:25:33;100742.50;;;15.70;nan
55685;BME280;41883;49.544;8.646;2022-09-01T03:27:58;100740.13;;;15.75;nan
55685;BME280;41883;49.544;8.646;2022-09-01T03:30:27;100749.28;;;15.81;nan
55685;BME280;41883;49.544;8.646;2022-09-01T03:32:54;100748.63;;;15.79;nan
55685;BME280;41883;49.544;8.646;2022-09-01T03:35:20;100747.78;;;15.78;nan
55685;BME280;41883;49.544;8.646;2022-09-01T03:37:46;100764.97;;;15.76;nan
55685;BME280;41883;49.544;8.646;2022-09-01T03:40:12;100754.84;;;15.71;nan
55685;BME280;41883;49.544;8.646;2022-09-01T03:42:38;100755.53;;;15.65;nan
55685;BME280;41883;49.544;8.646;2022-09-01T03:45:04;100754.59;;;15.58;nan
55685;BME280;41883;49.544;8.646;2022-09-01T03:47:34;100760.00;;;15.49;nan
55685;BME280;41883;49.544;8.646;2022-09-01T03:50:09;100754.34;;;15.44;nan
55685;BME280;41883;49.544;8.646;2022-09-01T03:52:54;100752.41;;;15.38;nan
55685;BME280;41883;49.544;8.646;2022-09-01T03:55:22;100751.09;;;15.34;nan
55685;BME280;41883;49.544;8.646;2022-09-01T03:57:52;100747.59;;;15.34;nan
55685;BME280;41883;49.544;8.646;2022-09-01T04:00:20;100752.13;;;15.33;nan
55685;BME280;41883;49.544;8.646;2022-09-01T04:02:48;100754.13;;;15.31;nan
55685;BME280;41883;49.544;8.646;2022-09-01T04:05:14;100755.78;;;15.32;nan
55685;BME280;41883;49.544;8.646;2022-09-01T04:07:40;100760.28;;;15.32;nan
55685;BME280;41883;49.544;8.646;2022-09-01T04:10:05;100751.47;;;15.31;nan
55685;BME280;41883;49.544;8.646;2022-09-01T04:12:35;100756.13;;;15.29;nan
55685;BME280;41883;49.544;8.646;2022-09-01T04:15:01;100754.66;;;15.26;nan
55685;BME280;41883;49.544;8.646;2022-09-01T04:17:26;100755.00;;;15.23;nan
55685;BME280;41883;49.544;8.646;2022-09-01T04:20:14;100745.22;;;15.16;nan
55685;BME280;41883;49.544;8.646;2022-09-01T04:22:44;100755.78;;;15.09;nan
55685;BME280;41883;49.544;8.646;2022-09-01T04:25:12;100756.63;;;15.01;nan
55685;BME280;41883;49.544;8.646;2022-09-01T04:27:37;100761.66;;;14.96;nan
55685;BME280;41883;49.544;8.646;2022-09-01T04:30:05;100751.88;;;14.89;nan
55685;BME280;41883;49.544;8.646;2022-09-01T04:32:37;100752.56;;;14.82;nan
55685;BME280;41883;49.544;8.646;2022-09-01T04:35:05;100754.09;;;14.77;nan
55685;BME280;41883;49.544;8.646;2022-09-01T04:37:31;100758.09;;;14.73;nan
55685;BME280;41883;49.544;8.646;2022-09-01T04:40:00;100760.44;;;14.68;nan
55685;BME280;41883;49.544;8.646;2022-09-01T04:42:27;100760.16;;;14.62;nan
55685;BME280;41883;49.544;8.646;2022-09-01T04:44:54;100762.16;;;14.60;nan
55685;BME280;41883;49.544;8.646;2022-09-01T04:47:20;100767.47;;;14.60;nan
55685;BME280;41883;49.544;8.646;2022-09-01T04:49:57;100762.16;;;14.60;nan
55685;BME280;41883;49.544;8.646;2022-09-01T04:52:26;100761.47;;;14.58;nan
55685;BME280;41883;49.544;8.646;2022-09-01T04:54:51;100766.66;;;14.60;nan
55685;BME280;41883;49.544;8.646;2022-09-01T04:57:19;100763.81;;;14.61;nan
55685;BME280;41883;49.544;8.646;2022-09-01T04:59:44;100766.47;;;14.61;nan
55685;BME280;41883;49.544;8.646;2022-09-01T05:02:09;100763.47;;;14.64;nan
55685;BME280;41883;49.544;8.646;2022-09-01T05:04:35;100763.13;;;14.68;nan
55685;BME280;41883;49.544;8.646;2022-09-01T05:07:02;100759.78;;;14.74;nan
55685;BME280;41883;49.544;8.646;2022-09-01T05:09:30;100765.03;;;14.82;nan
55685;BME280;41883;49.544;8.646;2022-09-01T05:11:56;100761.50;;;14.90;nan
55685;BME280;41883;49.544;8.646;2022-09-01T05:14:23;100758.97;;;14.96;nan
55685;BME280;41883;49.544;8.646;2022-09-01T05:16:55;100756.59;;;15.10;nan
55685;BME280;41883;49.544;8.646;2022-09-01T05:19:21;100760.66;;;15.20;nan
55685;BME280;41883;49.544;8.646;2022-09-01T05:21:48;100765.44;;;15.33;nan
55685;BME280;41883;49.544;8.646;2022-09-01T05:24:17;100764.66;;;15.47;nan
55685;BME280;41883;49.544;8.646;2022-09-01T05:26:44;100759.38;;;15.62;nan
55685;BME280;41883;49.544;8.646;2022-09-01T05:29:11;100760.63;;;15.75;nan
55685;BME280;41883;49.544;8.646;2022-09-01T05:31:40;100764.53;;;15.87;nan
55685;BME280;41883;49.544;8.646;2022-09-01T05:34:07;100761.25;;;16.00;nan
55685;BME280;41883;49.544;8.646;2022-09-01T05:36:34;100767.59;;;16.13;nan
55685;BME280;41883;49.544;8.646;2022-09-01T05:39:01;100773.16;;;16.27;nan
55685;BME280;41883;49.544;8.646;2022-09-01T05:41:27;100770.94;;;16.45;nan
55685;BME280;41883;49.544;8.646;2022-09-01T05:43:53;100769.00;;;16.69;nan
55685;BME280;41883;49.544;8.646;2022-09-01T05:46:23;100768.16;;;16.98;nan
55685;BME280;41883;49.544;8.646;2022-09-01T05:48:51;100767.50;;;17.32;nan
55685;BME280;41883;49.544;8.646;2022-09-01T05:51:19;100761.31;;;17.53;nan
55685;BME280;41883;49.544;8.646;2022-09-01T05:53:47;100776.63;;;17.81;nan
55685;BME280;41883;49.544;8.646;2022-09-01T05:56:16;100771.66;;;18.06;nan
55685;BME280;41883;49.544;8.646;2022-09-01T05:58:43;100781.34;;;18.42;nan
55685;BME280;41883;49.544;8.646;2022-09-01T06:01:18;100764.56;;;18.55;nan
55685;BME280;41883;49.544;8.646;2022-09-01T06:03:55;100780.84;;;18.60;nan
55685;BME280;41883;49.544;8.646;2022-09-01T06:06:29;100773.22;;;18.63;nan
55685;BME280;41883;49.544;8.646;2022-09-01T06:08:59;100775.72;;;18.65;nan
55685;BME280;41883;49.544;8.646;2022-09-01T06:11:26;100772.22;;;18.64;nan
55685;BME280;41883;49.544;8.646;2022-09-01T06:13:58;100771.59;;;18.62;nan
55685;BME280;41883;49.544;8.646;2022-09-01T06:16:24;100777.63;;;18.71;nan
55685;BME280;41883;49.544;8.646;2022-09-01T06:18:51;100774.59;;;18.87;nan
55685;BME280;41883;49.544;8.646;2022-09-01T06:21:19;100776.50;;;18.94;nan
55685;BME280;41883;49.544;8.646;2022-09-01T06:23:45;100771.94;;;18.94;nan
55685;BME280;41883;49.544;8.646;2022-09-01T06:26:18;100781.06;;;19.00;nan
55685;BME280;41883;49.544;8.646;2022-09-01T06:28:44;100783.34;;;19.03;nan
55685;BME280;41883;49.544;8.646;2022-09-01T06:31:10;100767.91;;;19.12;nan
55685;BME280;41883;49.544;8.646;2022-09-01T06:33:36;100775.50;;;19.08;nan
55685;BME280;41883;49.544;8.646;2022-09-01T06:36:03;100774.72;;;19.14;nan
55685;BME280;41883;49.544;8.646;2022-09-01T06:38:29;100776.56;;;19.20;nan
55685;BME280;41883;49.544;8.646;2022-09-01T06:41:02;100777.81;;;19.24;nan
55685;BME280;41883;49.544;8.646;2022-09-01T06:43:30;100772.06;;;19.34;nan
55685;BME280;41883;49.544;8.646;2022-09-01T06:46:00;100771.66;;;19.44;nan
55685;BME280;41883;49.544;8.646;2022-09-01T06:48:25;100772.94;;;19.55;nan
55685;BME280;41883;49.544;8.646;2022-09-01T06:50:50;100774.22;;;19.72;nan
55685;BME280;41883;49.544;8.646;2022-09-01T06:53:16;100773.19;;;19.86;nan
55685;BME280;41883;49.544;8.646;2022-09-01T06:55:43;100770.69;;;19.98;nan
55685;BME280;41883;49.544;8.646;2022-09-01T06:58:12;100777.91;;;20.04;nan
55685;BME280;41883;49.544;8.646;2022-09-01T07:00:41;100772.94;;;20.01;nan
55685;BME280;41883;49.544;8.646;2022-09-01T07:03:08;100771.50;;;20.05;nan
55685;BME280;41883;49.544;8.646;2022-09-01T07:05:37;100781.81;;;20.22;nan
55685;BME280;41883;49.544;8.646;2022-09-01T07:08:04;100784.00;;;20.51;nan
55685;BME280;41883;49.544;8.646;2022-09-01T07:10:39;100788.00;;;21.00;nan
55685;BME280;41883;49.544;8.646;2022-09-01T07:13:13;100788.91;;;21.65;nan
55685;BME280;41883;49.544;8.646;2022-09-01T07:15:43;100787.88;;;22.34;nan
55685;BME280;41883;49.544;8.646;2022-09-01T07:18:09;100796.50;;;22.98;nan
55685;BME280;41883;49.544;8.646;2022-09-01T07:20:39;100793.19;;;23.57;nan
55685;BME280;41883;49.544;8.646;2022-09-01T07:23:06;100804.59;;;23.70;nan
55685;BME280;41883;49.544;8.646;2022-09-01T07:25:32;100801.47;;;23.85;nan
55685;BME280;41883;49.544;8.646;2022-09-01T07:27:58;100795.38;;;24.02;nan
55685;BME280;41883;49.544;8.646;2022-09-01T07:30:24;100805.16;;;24.03;nan
55685;BME280;41883;49.544;8.646;2022-09-01T07:32:49;100799.50;;;23.92;nan
55685;BME280;41883;49.544;8.646;2022-09-01T07:35:17;100805.84;;;23.86;nan
55685;BME280;41883;49.544;8.646;2022-09-01T07:37:44;100803.00;;;23.39;nan
55685;BME280;41883;49.544;8.646;2022-09-01T07:40:11;100806.94;;;23.25;nan
55685;BME280;41883;49.544;8.646;2022-09-01T07:42:37;100799.56;;;23.02;nan
55685;BME280;41883;49.544;8.646;2022-09-01T07:45:06;100798.75;;;23.01;nan
55685;BME280;41883;49.544;8.646;2022-09-01T07:47:33;100797.94;;;23.01;nan
55685;BME280;41883;49.544;8.646;2022-09-01T07:50:03;100810.31;;;23.50;nan
55685;BME280;41883;49.544;8.646;2022-09-01T07:52:34;100806.06;;;23.85;nan
55685;BME280;41883;49.544;8.646;2022-09-01T07:55:01;100797.38;;;23.94;nan
55685;BME280;41883;49.544;8.646;2022-09-01T07:57:27;100803.03;;;24.05;nan
55685;BME280;41883;49.544;8.646;2022-09-01T07:59:52;100802.19;;;24.40;nan
55685;BME280;41883;49.544;8.646;2022-09-01T08:02:20;100804.50;;;24.71;nan
55685;BME280;41883;49.544;8.646;2022-09-01T08:04:45;100802.94;;;25.28;nan
55685;BME280;41883;49.544;8.646;2022-09-01T08:07:10;100808.22;;;25.97;nan
55685;BME280;41883;49.544;8.646;2022-09-01T08:09:36;100811.91;;;26.46;nan
55685;BME280;41883;49.544;8.646;2022-09-01T08:12:04;100806.84;;;26.94;nan
55685;BME280;41883;49.544;8.646;2022-09-01T08:14:29;100810.03;;;27.67;nan
55685;BME280;41883;49.544;8.646;2022-09-01T08:16:55;100805.47;;;28.53;nan
55685;BME280;41883;49.544;8.646;2022-09-01T08:19:21;100807.22;;;28.74;nan
55685;BME280;41883;49.544;8.646;2022-09-01T08:21:47;100814.56;;;28.26;nan
55685;BME280;41883;49.544;8.646;2022-09-01T08:24:12;100824.72;;;27.99;nan
55685;BME280;41883;49.544;8.646;2022-09-01T08:26:38;100818.38;;;27.56;nan
55685;BME280;41883;49.544;8.646;2022-09-01T08:29:04;100825.81;;;27.16;nan
55685;BME280;41883;49.544;8.646;2022-09-01T08:31:29;100822.53;;;27.68;nan
55685;BME280;41883;49.544;8.646;2022-09-01T08:33:55;100817.44;;;28.47;nan
55685;BME280;41883;49.544;8.646;2022-09-01T08:36:20;100815.34;;;28.64;nan
55685;BME280;41883;49.544;8.646;2022-09-01T08:38:46;100813.63;;;29.11;nan
55685;BME280;41883;49.544;8.646;2022-09-01T08:41:20;100822.44;;;29.79;nan
55685;BME280;41883;49.544;8.646;2022-09-01T08:46:27;100816.78;;;30.77;nan
55685;BME280;41883;49.544;8.646;2022-09-01T08:48:57;100816.78;;;30.87;nan
55685;BME280;41883;49.544;8.646;2022-09-01T08:54:17;100814.53;;;30.09;nan
55685;BME280;41883;49.544;8.646;2022-09-01T08:56:51;100813.19;;;29.70;nan
55685;BME280;41883;49.544;8.646;2022-09-01T08:59:18;100814.25;;;29.49;nan
55685;BME280;41883;49.544;8.646;2022-09-01T09:01:59;100802.56;;;29.74;nan
55685;BME280;41883;49.544;8.646;2022-09-01T09:07:04;100808.94;;;30.60;nan
55685;BME280;41883;49.544;8.646;2022-09-01T09:09:44;100808.25;;;30.99;nan
55685;BME280;41883;49.544;8.646;2022-09-01T09:12:35;100808.25;;;31.78;nan
55685;BME280;41883;49.544;8.646;2022-09-01T09:15:09;100803.56;;;31.83;nan
55685;BME280;41883;49.544;8.646;2022-09-01T09:17:46;100802.13;;;31.17;nan
55685;BME280;41883;49.544;8.646;2022-09-01T09:20:13;100802.78;;;30.29;nan
55685;BME280;41883;49.544;8.646;2022-09-01T09:22:40;100801.94;;;29.36;nan
55685;BME280;41883;49.544;8.646;2022-09-01T09:25:09;100792.22;;;28.67;nan
55685;BME280;41883;49.544;8.646;2022-09-01T09:27:43;100805.38;;;28.37;nan
55685;BME280;41883;49.544;8.646;2022-09-01T09:30:14;100802.53;;;27.80;nan
55685;BME280;41883;49.544;8.646;2022-09-01T09:32:47;100798.59;;;27.33;nan
55685;BME280;41883;49.544;8.646;2022-09-01T09:35:32;100799.03;;;27.03;nan
55685;BME280;41883;49.544;8.646;2022-09-01T09:43:24;100777.97;;;26.44;nan
55685;BME280;41883;49.544;8.646;2022-09-01T09:48:45;100788.22;;;26.20;nan
55685;BME280;41883;49.544;8.646;2022-09-01T09:51:20;100786.31;;;26.81;nan
55685;BME280;41883;49.544;8.646;2022-09-01T09:53:47;100784.41;;;26.38;nan
55685;BME280;41883;49.544;8.646;2022-09-01T09:56:23;100786.00;;;25.83;nan
55685;BME280;41883;49.544;8.646;2022-09-01T09:58:50;100782.88;;;26.64;nan
55685;BME280;41883;49.544;8.646;2022-09-01T10:03:53;100783.66;;;26.42;nan
55685;BME280;41883;49.544;8.646;2022-09-01T10:06:41;100776.84;;;25.84;nan
55685;BME280;41883;49.544;8.646;2022-09-01T10:09:34;100773.66;;;25.25;nan
55685;BME280;41883;49.544;8.646;2022-09-01T10:12:01;100772.56;;;25.88;nan
55685;BME280;41883;49.544;8.646;2022-09-01T10:14:37;100768.81;;;26.28;nan
55685;BME280;41883;49.544;8.646;2022-09-01T10:17:10;100761.50;;;26.28;nan
55685;BME280;41883;49.544;8.646;2022-09-01T10:19:46;100766.66;;;26.91;nan
55685;BME280;41883;49.544;8.646;2022-09-01T10:22:12;100758.69;;;27.11;nan
55685;BME280;41883;49.544;8.646;2022-09-01T10:24:38;100763.09;;;26.90;nan
55685;BME280;41883;49.544;8.646;2022-09-01T10:27:12;100764.50;;;26.71;nan
55685;BME280;41883;49.544;8.646;2022-09-01T10:29:48;100761.44;;;26.45;nan
55685;BME280;41883;49.544;8.646;2022-09-01T10:32:19;100765.84;;;26.68;nan
55685;BME280;41883;49.544;8.646;2022-09-01T10:34:46;100751.94;;;28.58;nan
55685;BME280;41883;49.544;8.646;2022-09-01T10:37:12;100752.38;;;29.29;nan
55685;BME280;41883;49.544;8.646;2022-09-01T10:40:11;100752.28;;;28.88;nan
55685;BME280;41883;49.544;8.646;2022-09-01T10:42:38;100748.13;;;28.65;nan
55685;BME280;41883;49.544;8.646;2022-09-01T10:45:04;100652.09;;;30.92;nan
55685;BME280;41883;49.544;8.646;2022-09-01T10:47:32;100670.78;;;32.20;nan
55685;BME280;41883;49.544;8.646;2022-09-01T10:50:00;100665.03;;;31.98;nan
55685;BME280;41883;49.544;8.646;2022-09-01T10:55:33;100671.00;;;31.17;nan
55685;BME280;41883;49.544;8.646;2022-09-01T11:06:05;100666.34;;;31.76;nan
55685;BME280;41883;49.544;8.646;2022-09-01T11:13:30;100640.94;;;29.68;nan
55685;BME280;41883;49.544;8.646;2022-09-01T11:16:24;100640.97;;;29.12;nan
55685;BME280;41883;49.544;8.646;2022-09-01T11:18:50;100636.84;;;28.89;nan
55685;BME280;41883;49.544;8.646;2022-09-01T11:21:29;100626.22;;;28.62;nan
55685;BME280;41883;49.544;8.646;2022-09-01T11:27:00;100669.53;;;30.96;nan
55685;BME280;41883;49.544;8.646;2022-09-01T11:29:52;100639.03;;;34.02;nan
55685;BME280;41883;49.544;8.646;2022-09-01T11:32:21;100639.38;;;35.81;nan
55685;BME280;41883;49.544;8.646;2022-09-01T11:34:48;100638.53;;;34.86;nan
55685;BME280;41883;49.544;8.646;2022-09-01T11:37:16;100637.88;;;35.35;nan
55685;BME280;41883;49.544;8.646;2022-09-01T11:39:48;100638.66;;;34.45;nan
55685;BME280;41883;49.544;8.646;2022-09-01T11:42:30;100626.34;;;31.85;nan
55685;BME280;41883;49.544;8.646;2022-09-01T11:47:44;100612.63;;;28.72;nan
55685;BME280;41883;49.544;8.646;2022-09-01T11:50:25;100640.09;;;27.87;nan
55685;BME280;41883;49.544;8.646;2022-09-01T11:58:11;100611.38;;;26.35;nan
55685;BME280;41883;49.544;8.646;2022-09-01T12:00:39;100583.72;;;26.33;nan
55685;BME280;41883;49.544;8.646;2022-09-01T12:03:21;100577.44;;;26.54;nan
55685;BME280;41883;49.544;8.646;2022-09-01T12:05:52;100595.50;;;26.43;nan
55685;BME280;41883;49.544;8.646;2022-09-01T12:11:05;100617.34;;;27.18;nan
55685;BME280;41883;49.544;8.646;2022-09-01T12:16:00;100583.06;;;28.02;nan
55685;BME280;41883;49.544;8.646;2022-09-01T12:18:31;100571.81;;;28.51;nan
55685;BME280;41883;49.544;8.646;2022-09-01T12:21:00;100583.78;;;28.66;nan
55685;BME280;41883;49.544;8.646;2022-09-01T12:23:30;100584.31;;;28.57;nan
55685;BME280;41883;49.544;8.646;2022-09-01T12:26:24;100569.25;;;28.24;nan
55685;BME280;41883;49.544;8.646;2022-09-01T12:28:50;100570.84;;;28.10;nan
55685;BME280;41883;49.544;8.646;2022-09-01T12:31:20;100578.22;;;28.14;nan
55685;BME280;41883;49.544;8.646;2022-09-01T12:33:47;100578.19;;;28.09;nan
55685;BME280;41883;49.544;8.646;2022-09-01T12:36:28;100574.94;;;28.07;nan
55685;BME280;41883;49.544;8.646;2022-09-01T12:38:56;100572.41;;;27.85;nan
55685;BME280;41883;49.544;8.646;2022-09-01T12:41:42;100603.59;;;27.78;nan
55685;BME280;41883;49.544;8.646;2022-09-01T12:44:31;100569.81;;;27.53;nan
55685;BME280;41883;49.544;8.646;2022-09-01T12:47:07;100493.94;;;27.36;nan
55685;BME280;41883;49.544;8.646;2022-09-01T12:49:35;100560.75;;;27.37;nan
55685;BME280;41883;49.544;8.646;2022-09-01T12:52:23;100562.06;;;27.29;nan
55685;BME280;41883;49.544;8.646;2022-09-01T13:00:13;100557.38;;;27.67;nan
55685;BME280;41883;49.544;8.646;2022-09-01T13:02:43;100555.66;;;27.51;nan
55685;BME280;41883;49.544;8.646;2022-09-01T13:08:17;100558.91;;;27.05;nan
55685;BME280;41883;49.544;8.646;2022-09-01T13:13:10;100536.34;;;26.67;nan
55685;BME280;41883;49.544;8.646;2022-09-01T13:15:39;100550.44;;;26.69;nan
55685;BME280;41883;49.544;8.646;2022-09-01T13:22:55;100554.03;;;26.21;nan
55685;BME280;41883;49.544;8.646;2022-09-01T13:25:22;100538.44;;;26.06;nan
55685;BME280;41883;49.544;8.646;2022-09-01T13:27:48;100519.19;;;25.85;nan
55685;BME280;41883;49.544;8.646;2022-09-01T13:30:16;100486.06;;;25.78;nan
55685;BME280;41883;49.544;8.646;2022-09-01T13:32:44;100521.50;;;25.94;nan
55685;BME280;41883;49.544;8.646;2022-09-01T13:35:14;100529.69;;;25.99;nan
55685;BME280;41883;49.544;8.646;2022-09-01T13:37:40;100528.56;;;25.95;nan
55685;BME280;41883;49.544;8.646;2022-09-01T13:40:06;100527.22;;;25.97;nan
55685;BME280;41883;49.544;8.646;2022-09-01T13:42:34;100524.19;;;26.16;nan
55685;BME280;41883;49.544;8.646;2022-09-01T13:49:50;100536.84;;;26.64;nan
55685;BME280;41883;49.544;8.646;2022-09-01T13:57:08;100530.00;;;26.57;nan
55685;BME280;41883;49.544;8.646;2022-09-01T13:59:33;100516.06;;;26.48;nan
55685;BME280;41883;49.544;8.646;2022-09-01T14:01:58;100525.81;;;26.44;nan
55685;BME280;41883;49.544;8.646;2022-09-01T14:09:16;100551.09;;;26.22;nan
55685;BME280;41883;49.544;8.646;2022-09-01T14:21:24;100512.63;;;25.98;nan
55685;BME280;41883;49.544;8.646;2022-09-01T14:26:15;100514.91;;;26.12;nan
55685;BME280;41883;49.544;8.646;2022-09-01T14:28:42;100507.91;;;26.16;nan
55685;BME280;41883;49.544;8.646;2022-09-01T14:31:14;100497.59;;;26.13;nan
55685;BME280;41883;49.544;8.646;2022-09-01T14:36:07;100541.81;;;26.18;nan
55685;BME280;41883;49.544;8.646;2022-09-01T14:38:33;100512.19;;;26.12;nan
55685;BME280;41883;49.544;8.646;2022-09-01T14:41:00;100509.41;;;26.01;nan
55685;BME280;41883;49.544;8.646;2022-09-01T14:43:25;100497.88;;;25.89;nan
55685;BME280;41883;49.544;8.646;2022-09-01T14:46:04;100477.28;;;25.66;nan
55685;BME280;41883;49.544;8.646;2022-09-01T14:48:32;100462.53;;;25.57;nan
55685;BME280;41883;49.544;8.646;2022-09-01T14:53:24;100531.53;;;25.32;nan
55685;BME280;41883;49.544;8.646;2022-09-01T14:55:49;100484.94;;;25.30;nan
55685;BME280;41883;49.544;8.646;2022-09-01T14:58:14;100488.41;;;25.26;nan
55685;BME280;41883;49.544;8.646;2022-09-01T15:03:06;100491.94;;;25.26;nan
55685;BME280;41883;49.544;8.646;2022-09-01T15:07:59;100472.13;;;25.42;nan
55685;BME280;41883;49.544;8.646;2022-09-01T15:10:25;100466.41;;;25.39;nan